Latest Weather Observations for Cape Moreton

IDQ60801

Issued at 2:32 pm EST Thursday 14 December 2017 (issued every 30 minutes, with the page automatically refreshed every 10 minutes)

About weather observations | Map of weather stations | Latest weather observations for QLD | Other Formats
Station Details ID: 040043 Name: CAPE MORETON LIGHTHOUSE Lat: -27.03 Lon: 153.47 Height: 99.9 m
Data from the previous 72 hours. | See also: Recent months at Cape Moreton
Date/Time
EST
Temp
°C
App
Temp
°C
Dew
Point
°C
Rel
Hum
%
Delta-T
°C
Wind Press
QNH
hPa
Press
MSL
hPa
Rain since
9am
mm
Dir  Spd
km/h
Gust
km/h
Spd
kts
Gust
kts
14/02:30pm 26.9 27.2 20.3 67 4.3 ESE 19 24 10 13 1012.1 1011.7 0.0
14/02:00pm 26.5 26.4 19.9 67 4.3 ESE 20 24 11 13 1012.2 1011.8 0.0
14/01:30pm 27.1 27.7 20.2 66 4.5 ESE 17 20 9 11 1012.3 1011.9 0.0
14/01:00pm 27.8 28.3 20.1 63 5.1 ESE 17 20 9 11 1012.7 1012.2 0.0
14/12:30pm 27.6 27.2 18.9 59 5.6 ESE 19 22 10 12 1012.5 1012.1 0.0
14/12:00pm 27.6 27.6 18.9 59 5.6 ESE 17 20 9 11 1012.9 1012.4 0.0
14/11:30am 27.5 27.7 19.3 61 5.3 ESE 17 20 9 11 1013.2 1012.7 0.0
14/11:00am 27.8 27.9 19.1 59 5.6 E 17 20 9 11 1013.3 1012.8 0.0
14/10:30am 27.9 28.2 19.7 61 5.4 ESE 17 19 9 10 1013.7 1013.2 0.0
14/10:00am 27.6 27.8 19.4 61 5.3 ESE 17 20 9 11 1013.9 1013.4 0.0
14/09:30am 27.3 27.7 19.1 61 5.3 ESE 15 19 8 10 1014.0 1013.5 0.0
14/09:00am 27.1 28.1 19.4 62 5.0 ESE 13 17 7 9 1014.1 1013.6 0.0
14/08:30am 27.2 28.1 20.0 64 4.7 ESE 15 19 8 10 1014.2 1013.7 0.0
14/08:00am 26.9 27.7 19.8 65 4.6 ESE 15 19 8 10 1014.2 1013.7 0.0
14/07:30am 26.1 26.4 18.8 64 4.7 ESE 15 19 8 10 1014.3 1013.8 0.0
14/07:00am 26.6 27.8 20.0 67 4.3 ESE 13 17 7 9 1014.3 1013.8 0.0
14/06:30am 25.7 26.2 18.4 64 4.6 ESE 13 17 7 9 1014.1 1013.6 0.0
14/06:00am 25.6 26.5 19.3 68 4.1 E 13 17 7 9 1013.8 1013.3 0.0
14/05:30am 23.9 24.7 19.0 74 3.1 ESE 13 19 7 10 1013.5 1013.0 0.0
14/05:00am 22.5 22.6 18.3 77 2.6 ESE 15 17 8 9 1013.2 1012.7 0.0
14/04:30am 22.2 22.9 18.8 81 2.2 ESE 13 17 7 9 1013.1 1012.6 0.0
14/04:00am 22.4 22.7 18.8 80 2.3 ESE 15 17 8 9 1013.1 1012.6 0.0
14/03:30am 22.3 22.7 18.9 81 2.2 ESE 15 17 8 9 1013.1 1012.6 0.0
14/03:00am 22.3 22.1 18.5 79 2.4 ESE 17 20 9 11 1013.0 1012.5 0.0
14/02:30am 22.4 22.8 19.0 81 2.2 E 15 22 8 12 1013.1 1012.6 0.0
14/02:00am 22.2 21.5 18.2 78 2.5 E 19 22 10 12 1013.3 1012.8 0.0
14/01:30am 22.7 21.6 18.7 78 2.5 E 22 28 12 15 1013.4 1012.9 0.0
14/01:00am 22.7 22.0 18.7 78 2.5 E 20 28 11 15 1013.7 1013.2 0.0
14/12:30am 22.8 21.7 18.6 77 2.7 E 22 30 12 16 1014.1 1013.6 0.0
14/12:00am 22.8 21.6 18.3 76 2.8 E 22 28 12 15 1014.6 1014.1 0.0
 
Date/Time
EST
Temp
°C
App
Temp
°C
Dew
Point
°C
Rel
Hum
%
Delta-T
°C
Wind Press
QNH
hPa
Press
MSL
hPa
Rain since
9am
mm
Dir  Spd
km/h
Gust
km/h
Spd
kts
Gust
kts
13/11:30pm 23.0 21.2 17.9 73 3.2 E 24 30 13 16 1014.9 1014.4 0.0
13/11:00pm 22.9 20.4 17.1 70 3.6 E 26 32 14 17 1015.0 1014.5 0.0
13/10:30pm 22.9 20.7 17.8 73 3.2 E 26 32 14 17 1015.3 1014.8 0.0
13/10:00pm 23.1 20.5 17.8 72 3.3 ESE 28 33 15 18 1015.5 1015.0 0.0
13/09:30pm 23.2 20.6 17.9 72 3.3 E 28 32 15 17 1015.4 1014.9 0.0
13/09:00pm 23.2 21.3 18.5 75 3.0 E 26 30 14 16 1015.3 1014.8 0.0
13/08:30pm 23.2 21.1 18.1 73 3.2 ESE 26 33 14 18 1015.3 1014.8 0.0
13/08:00pm 23.2 20.7 18.1 73 3.2 ESE 28 35 15 19 1015.1 1014.6 0.0
13/07:30pm 23.5 20.6 18.8 75 3.0 E 32 35 17 19 1015.0 1014.5 0.0
13/07:00pm 23.5 21.3 18.8 75 3.0 E 28 33 15 18 1014.9 1014.4 0.0
13/06:30pm 23.9 22.3 19.2 75 3.0 E 26 32 14 17 1014.9 1014.4 0.0
13/06:00pm 24.2 22.0 18.8 72 3.4 ESE 28 35 15 19 1014.6 1014.1 0.0
13/05:30pm 24.7 22.8 18.6 69 3.9 ESE 26 33 14 18 1014.3 1013.8 0.0
13/05:00pm 24.6 22.1 18.1 67 4.1 ESE 28 33 15 18 1014.1 1013.6 0.0
13/04:30pm 24.9 22.7 18.6 68 4.0 ESE 28 30 15 16 1013.8 1013.3 0.0
13/04:00pm 25.3 23.6 19.0 68 4.0 ESE 26 32 14 17 1013.6 1013.1 0.0
13/03:30pm 25.5 23.8 18.9 67 4.2 ESE 26 32 14 17 1013.6 1013.1 0.0
13/03:00pm 25.6 23.8 18.8 66 4.4 ESE 26 30 14 16 1014.0 1013.5 0.0
13/02:30pm 25.7 24.0 18.9 66 4.4 ESE 26 30 14 16 1014.4 1013.9 0.0
13/02:00pm 26.4 25.2 19.3 65 4.6 ESE 24 30 13 16 1014.4 1013.9 0.0
13/01:30pm 26.4 25.2 19.3 65 4.6 ESE 24 28 13 15 1014.7 1014.2 0.0
13/01:00pm 26.7 25.8 19.1 63 4.9 ESE 22 24 12 13 1015.0 1014.5 0.0
13/12:30pm 26.5 25.4 19.4 65 4.6 ESE 24 30 13 16 1015.3 1014.8 0.0
13/12:00pm 27.0 25.9 19.4 63 4.9 ESE 24 30 13 16 1015.4 1014.9 0.0
13/11:30am 26.7 25.1 19.3 64 4.8 ESE 26 30 14 16 1015.6 1015.1 0.0
13/11:00am 26.5 24.4 18.9 63 4.9 ESE 28 32 15 17 1015.8 1015.3 0.0
13/10:30am 26.8 25.8 19.7 65 4.6 ESE 24 30 13 16 1016.0 1015.5 0.0
13/10:00am 26.0 24.8 19.2 66 4.4 ESE 24 30 13 16 1016.0 1015.5 0.0
13/09:30am 26.4 24.2 18.8 63 4.9 ESE 28 32 15 17 1016.0 1015.5 0.0
13/09:00am 26.3 24.2 18.9 63 4.8 ESE 28 35 15 19 1016.0 1015.5 0.4
13/08:30am 26.2 24.0 18.6 63 4.9 ESE 28 33 15 18 1016.0 1015.5 0.4
13/08:00am 25.9 22.8 18.3 63 4.8 ESE 32 37 17 20 1015.8 1015.3 0.4
13/07:30am 25.5 22.9 18.7 66 4.3 ESE 30 35 16 19 1015.7 1015.2 0.4
13/07:00am 24.9 21.8 18.4 67 4.1 ESE 32 39 17 21 1015.5 1015.0 0.4
13/06:30am 24.3 21.1 18.2 68 3.9 ESE 32 37 17 20 1015.1 1014.6 0.4
13/06:00am 23.8 20.3 17.8 69 3.8 ESE 33 39 18 21 1014.8 1014.3 0.4
13/05:30am 23.4 20.3 18.5 74 3.1 ESE 32 41 17 22 1014.6 1014.1 0.4
13/05:00am 22.8 19.3 17.9 74 3.1 ESE 33 39 18 21 1014.5 1014.0 0.4
13/04:30am 22.7 19.3 17.8 74 3.1 ESE 32 39 17 21 1014.2 1013.7 0.4
13/04:00am 22.8 18.9 17.9 74 3.1 ESE 35 43 19 23 1014.1 1013.6 0.4
13/03:30am 22.7 18.9 18.0 75 2.9 ESE 35 43 19 23 1014.2 1013.7 0.4
13/03:00am 22.7 18.2 17.4 72 3.3 ESE 37 43 20 23 1014.2 1013.7 0.4
13/02:30am 22.8 18.4 17.5 72 3.3 ESE 37 43 20 23 1014.2 1013.7 0.4
13/02:00am 23.0 19.1 18.7 77 2.7 ESE 37 44 20 24 1014.4 1013.9 0.4
13/01:30am 23.0 18.2 18.5 76 2.8 ESE 41 48 22 26 1014.6 1014.1 0.4
13/01:00am 23.4 19.9 20.5 84 1.9 ESE 39 50 21 27 1015.0 1014.5 0.4
13/12:30am 23.0 19.2 19.8 82 2.1 SE 39 46 21 25 1015.3 1014.8 0.4
13/12:00am 22.9 19.4 19.5 81 2.2 SE 37 44 20 24 1015.8 1015.3 0.4
 
Date/Time
EST
Temp
°C
App
Temp
°C
Dew
Point
°C
Rel
Hum
%
Delta-T
°C
Wind Press
QNH
hPa
Press
MSL
hPa
Rain since
9am
mm
Dir  Spd
km/h
Gust
km/h
Spd
kts
Gust
kts
12/11:30pm 22.9 19.3 19.3 80 2.3 SE 37 44 20 24 1016.2 1015.7 0.4
12/11:00pm 23.0 20.0 19.8 82 2.1 SE 35 44 19 24 1016.6 1016.1 0.4
12/10:30pm 23.1 18.8 19.5 80 2.3 SE 41 48 22 26 1016.6 1016.1 0.4
12/10:00pm 23.1 18.4 19.5 80 2.3 SE 43 54 23 29 1016.6 1016.1 0.4
12/09:30pm 23.1 18.1 19.3 79 2.4 SE 44 52 24 28 1016.7 1016.2 0.4
12/09:00pm 23.2 18.2 19.2 78 2.6 SE 44 54 24 29 1016.8 1016.3 0.4
12/08:30pm 23.3 18.7 19.7 80 2.3 SE 43 50 23 27 1016.7 1016.2 0.4
12/08:00pm 23.2 18.5 19.8 81 2.2 SE 44 52 24 28 1016.6 1016.1 0.4
12/07:30pm 23.3 18.2 19.9 81 2.2 SE 46 54 25 29 1016.4 1015.9 0.4
12/07:00pm 23.2 18.0 19.6 80 2.3 SE 46 56 25 30 1016.1 1015.6 0.4
12/06:30pm 23.5 18.3 19.6 79 2.5 SE 46 56 25 30 1015.9 1015.4 0.4
12/06:00pm 23.6 17.8 19.1 76 2.9 SE 48 59 26 32 1015.6 1015.1 0.4
12/05:30pm 23.6 18.1 18.9 75 3.0 SE 46 54 25 29 1015.5 1015.0 0.4
12/05:00pm 24.1 19.0 19.8 77 2.8 SE 46 56 25 30 1015.3 1014.8 0.4
12/04:30pm 24.2 19.3 19.5 75 3.0 SE 44 56 24 30 1015.1 1014.6 0.4
12/04:00pm 24.2 18.6 19.5 75 3.0 SE 48 63 26 34 1014.9 1014.4 0.4
12/03:30pm 24.4 18.5 19.0 72 3.5 SE 48 59 26 32 1014.8 1014.3 0.4
12/03:00pm 24.3 17.7 19.1 73 3.3 SE 52 65 28 35 1014.8 1014.3 0.4
12/02:30pm 24.0 18.0 19.5 76 2.9 SE 50 59 27 32 1015.1 1014.6 0.4
12/02:00pm 22.5 16.8 20.2 87 1.5 SE 50 63 27 34 1015.6 1015.1 0.4
12/01:30pm 24.9 18.9 18.8 69 3.9 SSE 48 56 26 30 1015.5 1015.0 0.4
12/01:00pm 25.0 19.0 19.6 72 3.5 SSE 50 59 27 32 1015.6 1015.1 0.4
12/12:30pm 24.0 18.6 20.1 79 2.5 SSE 48 61 26 33 1015.6 1015.1 0.4
12/12:00pm 22.6 18.1 20.3 87 1.5 SE 44 63 24 34 1016.0 1015.5 0.2
12/11:46am 22.8 21.2 20.7 88 1.4 SSE 30 48 16 26 1016.4 1015.9 0.2
12/11:30am 23.0 18.4 20.9 88 1.4 SE 46 56 25 30 1016.5 1016.0 0.0
12/11:00am 23.9 19.0 20.2 80 2.4 SSE 46 56 25 30 1016.5 1016.0 0.0
12/10:36am 24.4 20.9 21.1 82 2.2 SSE 41 59 22 32 1016.6 1016.1 0.0
12/10:30am 23.6 19.0 19.7 79 2.5 SSE 43 56 23 30 1016.7 1016.2 0.0
12/10:00am 23.0 18.7 19.6 81 2.2 SSE 41 54 22 29 1016.7 1016.2 0.0
12/09:30am 22.8 19.8 19.8 83 1.9 SSE 35 50 19 27 1016.7 1016.2 0.0
12/09:03am 22.8 19.6 19.4 81 2.2 SSE 35 56 19 30 1016.5 1016.0 0.0
12/09:00am 23.0 20.3 19.6 81 2.2 SSE 33 46 18 25 1016.6 1016.1 1.6
12/08:30am 22.5 20.0 19.7 84 1.8 SSE 32 48 17 26 1016.5 1016.0 1.6
12/08:00am 22.8 20.9 19.4 81 2.2 S 28 37 15 20 1016.6 1016.1 1.6
12/07:30am 22.7 20.3 19.1 80 2.3 S 30 41 16 22 1016.4 1015.9 1.6
12/07:00am 22.5 19.8 19.3 82 2.0 S 32 41 17 22 1016.1 1015.6 1.6
12/06:30am 21.4 19.0 18.2 82 2.0 SSW 28 37 15 20 1016.2 1015.7 1.6
12/06:00am 21.2 19.7 17.6 80 2.2 SSW 22 30 12 16 1016.0 1015.5 1.6
12/05:30am 22.6 19.1 16.6 69 3.7 SE 30 39 16 21 1015.5 1015.0 1.6
12/05:00am 22.6 18.8 16.6 69 3.7 SE 32 39 17 21 1015.3 1014.8 1.6
12/04:30am 22.4 18.1 16.0 67 3.9 SE 33 39 18 21 1015.1 1014.6 1.6
12/04:00am 22.4 17.9 16.4 69 3.7 SE 35 43 19 23 1015.0 1014.5 1.6
12/03:30am 22.3 18.1 16.1 68 3.8 SE 33 43 18 23 1014.9 1014.4 1.6
12/03:00am 22.3 16.7 15.6 66 4.0 SE 39 46 21 25 1014.7 1014.2 1.6
12/02:30am 22.3 17.3 16.1 68 3.8 SE 37 46 20 25 1014.9 1014.4 1.6
12/02:00am 22.3 17.2 16.8 71 3.4 SE 39 46 21 25 1015.2 1014.7 1.6
12/01:30am 22.3 16.2 16.3 69 3.7 SE 43 50 23 27 1015.1 1014.6 1.6
12/01:00am 22.4 17.0 16.9 71 3.4 SE 41 50 22 27 1015.4 1014.9 1.6
12/12:30am 22.3 16.0 16.1 68 3.8 SE 44 52 24 28 1015.9 1015.4 1.6
12/12:00am 22.2 16.0 16.0 68 3.7 SE 43 52 23 28 1016.0 1015.5 1.6
 
Date/Time
EST
Temp
°C
App
Temp
°C
Dew
Point
°C
Rel
Hum
%
Delta-T
°C
Wind Press
QNH
hPa
Press
MSL
hPa
Rain since
9am
mm
Dir  Spd
km/h
Gust
km/h
Spd
kts
Gust
kts
11/11:30pm 22.5 17.3 17.4 73 3.2 SE 41 50 22 27 1016.3 1015.8 1.6
11/11:00pm 22.5 16.3 16.3 68 3.8 SE 44 52 24 28 1016.6 1016.1 1.6
11/10:30pm 22.7 17.0 17.2 71 3.4 SE 43 54 23 29 1016.9 1016.4 1.6
11/10:00pm 22.7 17.6 17.8 74 3.1 SE 41 50 22 27 1016.9 1016.4 1.6
11/09:30pm 22.7 17.7 18.0 75 2.9 SE 41 46 22 25 1017.0 1016.5 1.6
11/09:00pm 22.9 18.3 18.9 78 2.5 ESE 41 48 22 26 1016.7 1016.2 1.6
11/08:30pm 22.9 17.8 18.7 77 2.7 SE 43 54 23 29 1016.4 1015.9 1.6
11/08:00pm 23.0 17.9 19.0 78 2.5 SE 44 50 24 27 1016.3 1015.8 1.6
11/07:30pm 23.0 18.1 19.0 78 2.5 ESE 43 50 23 27 1016.1 1015.6 1.6
11/07:00pm 22.9 17.8 18.7 77 2.7 ESE 43 48 23 26 1015.8 1015.3 1.6
11/06:30pm 23.0 18.1 19.4 80 2.3 ESE 44 54 24 29 1015.5 1015.0 1.6
11/06:00pm 23.2 18.2 20.0 82 2.1 SE 46 54 25 29 1015.5 1015.0 1.6
11/05:30pm 23.2 18.6 20.0 82 2.1 ESE 44 54 24 29 1015.2 1014.7 1.6
11/05:00pm 23.6 18.7 20.3 82 2.1 ESE 46 54 25 29 1014.9 1014.4 1.6
11/04:30pm 23.6 18.4 20.5 83 2.0 SE 48 57 26 31 1014.5 1014.0 1.6
11/04:00pm 23.6 19.3 20.7 84 1.9 ESE 44 56 24 30 1014.7 1014.2 1.6
11/03:30pm 22.3 20.5 22.3 100 0.0 ESE 35 41 19 22 1015.0 1014.5 1.6
11/03:00pm 21.5 18.9 21.5 100 0.0 ESE 37 48 20 26 1015.5 1015.0 1.6

Other Formats:

Comma delimited format used in spreadsheet applications
http://www.bom.gov.au/fwo/IDQ60801/IDQ60801.94594.axf

JavaScript Object Notation format (JSON) in row-major order
http://www.bom.gov.au/fwo/IDQ60801/IDQ60801.94594.json